sensor_id;sensor_type;location;lat;lon;timestamp;P1;durP1;ratioP1;P2;durP2;ratioP2
24381;SDS011;12502;50.678;7.172;2022-08-01T00:04:31;3.40;;;1.52;;
24381;SDS011;12502;50.678;7.172;2022-08-01T00:09:33;2.47;;;1.90;;
24381;SDS011;12502;50.678;7.172;2022-08-01T00:14:35;2.65;;;1.50;;
24381;SDS011;12502;50.678;7.172;2022-08-01T00:19:36;2.83;;;1.42;;
24381;SDS011;12502;50.678;7.172;2022-08-01T00:24:38;2.50;;;1.40;;
24381;SDS011;12502;50.678;7.172;2022-08-01T00:29:40;2.63;;;1.52;;
24381;SDS011;12502;50.678;7.172;2022-08-01T00:35:02;4.07;;;1.70;;
24381;SDS011;12502;50.678;7.172;2022-08-01T00:40:04;2.08;;;1.50;;
24381;SDS011;12502;50.678;7.172;2022-08-01T00:45:07;2.20;;;1.60;;
24381;SDS011;12502;50.678;7.172;2022-08-01T00:50:09;1.73;;;1.38;;
24381;SDS011;12502;50.678;7.172;2022-08-01T00:55:12;3.80;;;1.58;;
24381;SDS011;12502;50.678;7.172;2022-08-01T01:00:15;2.65;;;1.60;;
24381;SDS011;12502;50.678;7.172;2022-08-01T01:05:17;2.70;;;1.55;;
24381;SDS011;12502;50.678;7.172;2022-08-01T01:10:23;2.53;;;1.60;;
24381;SDS011;12502;50.678;7.172;2022-08-01T01:20:58;2.60;;;1.70;;
24381;SDS011;12502;50.678;7.172;2022-08-01T01:32:04;2.90;;;1.40;;
24381;SDS011;12502;50.678;7.172;2022-08-01T01:37:31;3.78;;;1.60;;
24381;SDS011;12502;50.678;7.172;2022-08-01T01:42:35;3.53;;;1.67;;
24381;SDS011;12502;50.678;7.172;2022-08-01T01:47:38;2.17;;;1.50;;
24381;SDS011;12502;50.678;7.172;2022-08-01T01:52:41;4.38;;;1.67;;
24381;SDS011;12502;50.678;7.172;2022-08-01T02:02:47;4.10;;;2.03;;
24381;SDS011;12502;50.678;7.172;2022-08-01T02:07:50;3.05;;;1.83;;
24381;SDS011;12502;50.678;7.172;2022-08-01T02:13:00;2.30;;;2.03;;
24381;SDS011;12502;50.678;7.172;2022-08-01T02:18:05;2.05;;;1.85;;
24381;SDS011;12502;50.678;7.172;2022-08-01T02:23:10;2.30;;;2.00;;
24381;SDS011;12502;50.678;7.172;2022-08-01T02:28:32;3.20;;;1.90;;
24381;SDS011;12502;50.678;7.172;2022-08-01T02:33:39;1.90;;;1.70;;
24381;SDS011;12502;50.678;7.172;2022-08-01T02:38:44;1.80;;;1.70;;
24381;SDS011;12502;50.678;7.172;2022-08-01T02:43:49;2.22;;;1.90;;
24381;SDS011;12502;50.678;7.172;2022-08-01T02:48:53;3.97;;;2.20;;
24381;SDS011;12502;50.678;7.172;2022-08-01T02:53:59;2.67;;;2.13;;
24381;SDS011;12502;50.678;7.172;2022-08-01T02:59:05;3.70;;;2.47;;
24381;SDS011;12502;50.678;7.172;2022-08-01T03:04:10;3.53;;;2.63;;
24381;SDS011;12502;50.678;7.172;2022-08-01T03:09:13;2.80;;;2.28;;
24381;SDS011;12502;50.678;7.172;2022-08-01T03:14:17;3.25;;;2.40;;
24381;SDS011;12502;50.678;7.172;2022-08-01T03:19:24;3.25;;;2.30;;
24381;SDS011;12502;50.678;7.172;2022-08-01T03:24:27;6.15;;;2.63;;
24381;SDS011;12502;50.678;7.172;2022-08-01T03:29:30;3.08;;;2.50;;
24381;SDS011;12502;50.678;7.172;2022-08-01T03:34:33;3.50;;;2.63;;
24381;SDS011;12502;50.678;7.172;2022-08-01T03:39:37;6.47;;;2.22;;
24381;SDS011;12502;50.678;7.172;2022-08-01T03:44:48;6.18;;;2.35;;
24381;SDS011;12502;50.678;7.172;2022-08-01T03:49:55;6.03;;;3.10;;
24381;SDS011;12502;50.678;7.172;2022-08-01T03:55:01;2.87;;;2.37;;
24381;SDS011;12502;50.678;7.172;2022-08-01T04:00:08;3.30;;;2.50;;
24381;SDS011;12502;50.678;7.172;2022-08-01T04:05:10;3.83;;;2.40;;
24381;SDS011;12502;50.678;7.172;2022-08-01T04:10:12;4.32;;;2.92;;
24381;SDS011;12502;50.678;7.172;2022-08-01T04:15:14;4.20;;;3.13;;
24381;SDS011;12502;50.678;7.172;2022-08-01T04:20:16;5.53;;;2.80;;
24381;SDS011;12502;50.678;7.172;2022-08-01T04:25:23;3.95;;;3.55;;
24381;SDS011;12502;50.678;7.172;2022-08-01T04:30:28;5.82;;;3.40;;
24381;SDS011;12502;50.678;7.172;2022-08-01T04:35:33;5.03;;;3.70;;
24381;SDS011;12502;50.678;7.172;2022-08-01T04:40:56;4.88;;;3.83;;
24381;SDS011;12502;50.678;7.172;2022-08-01T04:46:05;4.57;;;3.53;;
24381;SDS011;12502;50.678;7.172;2022-08-01T04:51:11;6.93;;;4.20;;
24381;SDS011;12502;50.678;7.172;2022-08-01T04:56:16;6.35;;;4.35;;
24381;SDS011;12502;50.678;7.172;2022-08-01T05:01:19;5.25;;;3.88;;
24381;SDS011;12502;50.678;7.172;2022-08-01T05:06:21;7.22;;;4.07;;
24381;SDS011;12502;50.678;7.172;2022-08-01T05:11:23;7.75;;;4.03;;
24381;SDS011;12502;50.678;7.172;2022-08-01T05:16:25;7.15;;;4.72;;
24381;SDS011;12502;50.678;7.172;2022-08-01T05:21:27;6.57;;;4.50;;
24381;SDS011;12502;50.678;7.172;2022-08-01T05:26:29;6.53;;;4.75;;
24381;SDS011;12502;50.678;7.172;2022-08-01T05:31:32;5.22;;;4.32;;
24381;SDS011;12502;50.678;7.172;2022-08-01T05:36:37;6.80;;;4.78;;
24381;SDS011;12502;50.678;7.172;2022-08-01T05:41:39;7.70;;;4.57;;
24381;SDS011;12502;50.678;7.172;2022-08-01T05:46:41;7.90;;;5.13;;
24381;SDS011;12502;50.678;7.172;2022-08-01T05:51:43;10.93;;;5.35;;
24381;SDS011;12502;50.678;7.172;2022-08-01T05:56:45;7.63;;;5.40;;
24381;SDS011;12502;50.678;7.172;2022-08-01T06:01:47;9.05;;;5.85;;
24381;SDS011;12502;50.678;7.172;2022-08-01T06:06:49;9.15;;;5.72;;
24381;SDS011;12502;50.678;7.172;2022-08-01T06:11:50;7.25;;;5.30;;
24381;SDS011;12502;50.678;7.172;2022-08-01T06:16:52;8.80;;;5.50;;
24381;SDS011;12502;50.678;7.172;2022-08-01T06:21:54;6.30;;;5.55;;
24381;SDS011;12502;50.678;7.172;2022-08-01T06:26:56;8.18;;;5.93;;
24381;SDS011;12502;50.678;7.172;2022-08-01T06:31:58;9.85;;;6.55;;
24381;SDS011;12502;50.678;7.172;2022-08-01T06:37:00;8.10;;;5.35;;
24381;SDS011;12502;50.678;7.172;2022-08-01T06:42:07;10.02;;;6.72;;
24381;SDS011;12502;50.678;7.172;2022-08-01T06:47:09;8.90;;;6.10;;
24381;SDS011;12502;50.678;7.172;2022-08-01T06:52:11;10.95;;;6.80;;
24381;SDS011;12502;50.678;7.172;2022-08-01T06:57:12;13.35;;;8.27;;
24381;SDS011;12502;50.678;7.172;2022-08-01T07:02:14;12.38;;;7.50;;
24381;SDS011;12502;50.678;7.172;2022-08-01T07:07:16;12.63;;;8.65;;
24381;SDS011;12502;50.678;7.172;2022-08-01T07:12:18;10.02;;;7.53;;
24381;SDS011;12502;50.678;7.172;2022-08-01T07:17:20;11.35;;;8.05;;
24381;SDS011;12502;50.678;7.172;2022-08-01T07:22:21;9.48;;;7.20;;
24381;SDS011;12502;50.678;7.172;2022-08-01T07:27:24;10.18;;;8.05;;
24381;SDS011;12502;50.678;7.172;2022-08-01T07:32:26;13.93;;;7.90;;
24381;SDS011;12502;50.678;7.172;2022-08-01T07:37:30;10.13;;;7.50;;
24381;SDS011;12502;50.678;7.172;2022-08-01T07:42:49;14.18;;;7.40;;
24381;SDS011;12502;50.678;7.172;2022-08-01T07:47:50;14.20;;;8.32;;
24381;SDS011;12502;50.678;7.172;2022-08-01T07:52:52;11.40;;;8.52;;
24381;SDS011;12502;50.678;7.172;2022-08-01T07:57:54;9.60;;;7.63;;
24381;SDS011;12502;50.678;7.172;2022-08-01T08:02:56;11.18;;;7.15;;
24381;SDS011;12502;50.678;7.172;2022-08-01T08:07:59;13.73;;;8.35;;
24381;SDS011;12502;50.678;7.172;2022-08-01T08:13:02;9.23;;;7.80;;
24381;SDS011;12502;50.678;7.172;2022-08-01T08:18:04;10.40;;;7.90;;
24381;SDS011;12502;50.678;7.172;2022-08-01T08:23:06;12.48;;;7.72;;
24381;SDS011;12502;50.678;7.172;2022-08-01T08:28:44;10.02;;;7.45;;
24381;SDS011;12502;50.678;7.172;2022-08-01T08:33:45;8.45;;;6.80;;
24381;SDS011;12502;50.678;7.172;2022-08-01T08:38:47;11.10;;;7.25;;
24381;SDS011;12502;50.678;7.172;2022-08-01T08:43:49;12.27;;;6.95;;
24381;SDS011;12502;50.678;7.172;2022-08-01T08:48:51;7.10;;;6.30;;
24381;SDS011;12502;50.678;7.172;2022-08-01T08:53:54;9.60;;;6.30;;
24381;SDS011;12502;50.678;7.172;2022-08-01T08:58:57;9.27;;;6.20;;
24381;SDS011;12502;50.678;7.172;2022-08-01T09:03:59;5.95;;;5.25;;
24381;SDS011;12502;50.678;7.172;2022-08-01T09:09:01;6.22;;;5.18;;
24381;SDS011;12502;50.678;7.172;2022-08-01T09:14:14;5.75;;;4.47;;
24381;SDS011;12502;50.678;7.172;2022-08-01T09:19:23;7.72;;;4.53;;
24381;SDS011;12502;50.678;7.172;2022-08-01T09:24:41;7.38;;;4.03;;
24381;SDS011;12502;50.678;7.172;2022-08-01T09:29:43;4.43;;;3.97;;
24381;SDS011;12502;50.678;7.172;2022-08-01T09:34:50;4.53;;;3.95;;
24381;SDS011;12502;50.678;7.172;2022-08-01T09:39:54;5.43;;;4.40;;
24381;SDS011;12502;50.678;7.172;2022-08-01T09:44:58;5.53;;;4.30;;
24381;SDS011;12502;50.678;7.172;2022-08-01T09:50:02;5.90;;;3.93;;
24381;SDS011;12502;50.678;7.172;2022-08-01T09:55:11;4.82;;;3.95;;
24381;SDS011;12502;50.678;7.172;2022-08-01T10:00:16;5.32;;;4.38;;
24381;SDS011;12502;50.678;7.172;2022-08-01T10:05:40;6.32;;;4.50;;
24381;SDS011;12502;50.678;7.172;2022-08-01T10:11:08;8.63;;;5.22;;
24381;SDS011;12502;50.678;7.172;2022-08-01T10:16:12;9.13;;;4.70;;
24381;SDS011;12502;50.678;7.172;2022-08-01T10:21:16;5.70;;;4.93;;
24381;SDS011;12502;50.678;7.172;2022-08-01T10:26:38;6.22;;;4.20;;
24381;SDS011;12502;50.678;7.172;2022-08-01T10:31:41;4.68;;;4.28;;
24381;SDS011;12502;50.678;7.172;2022-08-01T10:36:50;7.78;;;4.40;;
24381;SDS011;12502;50.678;7.172;2022-08-01T10:41:54;6.13;;;4.53;;
24381;SDS011;12502;50.678;7.172;2022-08-01T10:47:02;7.57;;;4.00;;
24381;SDS011;12502;50.678;7.172;2022-08-01T10:52:15;3.58;;;3.28;;
24381;SDS011;12502;50.678;7.172;2022-08-01T10:57:20;3.80;;;3.50;;
24381;SDS011;12502;50.678;7.172;2022-08-01T11:02:31;6.32;;;4.15;;
24381;SDS011;12502;50.678;7.172;2022-08-01T11:07:56;5.30;;;3.30;;
24381;SDS011;12502;50.678;7.172;2022-08-01T11:12:59;5.55;;;4.70;;
24381;SDS011;12502;50.678;7.172;2022-08-01T11:23:51;6.40;;;4.70;;
24381;SDS011;12502;50.678;7.172;2022-08-01T11:29:11;10.73;;;4.50;;
24381;SDS011;12502;50.678;7.172;2022-08-01T11:34:36;5.60;;;3.53;;
24381;SDS011;12502;50.678;7.172;2022-08-01T11:45:46;8.82;;;3.90;;
24381;SDS011;12502;50.678;7.172;2022-08-01T11:50:55;4.18;;;3.53;;
24381;SDS011;12502;50.678;7.172;2022-08-01T11:56:02;5.10;;;4.07;;
24381;SDS011;12502;50.678;7.172;2022-08-01T12:01:04;4.88;;;3.33;;
24381;SDS011;12502;50.678;7.172;2022-08-01T12:06:07;5.15;;;4.30;;
24381;SDS011;12502;50.678;7.172;2022-08-01T12:11:10;4.40;;;3.75;;
24381;SDS011;12502;50.678;7.172;2022-08-01T12:16:12;4.32;;;3.50;;
24381;SDS011;12502;50.678;7.172;2022-08-01T12:21:13;5.43;;;3.05;;
24381;SDS011;12502;50.678;7.172;2022-08-01T12:26:15;5.07;;;4.00;;
24381;SDS011;12502;50.678;7.172;2022-08-01T12:31:32;6.10;;;4.40;;
24381;SDS011;12502;50.678;7.172;2022-08-01T12:36:35;5.20;;;4.38;;
24381;SDS011;12502;50.678;7.172;2022-08-01T12:41:37;5.32;;;4.80;;
24381;SDS011;12502;50.678;7.172;2022-08-01T12:46:39;4.50;;;3.97;;
24381;SDS011;12502;50.678;7.172;2022-08-01T12:51:44;5.25;;;3.90;;
24381;SDS011;12502;50.678;7.172;2022-08-01T12:56:57;4.03;;;3.67;;
24381;SDS011;12502;50.678;7.172;2022-08-01T13:02:07;6.60;;;4.70;;
24381;SDS011;12502;50.678;7.172;2022-08-01T13:07:10;6.78;;;4.63;;
24381;SDS011;12502;50.678;7.172;2022-08-01T13:12:12;6.28;;;4.72;;
24381;SDS011;12502;50.678;7.172;2022-08-01T13:17:28;5.90;;;4.50;;
24381;SDS011;12502;50.678;7.172;2022-08-01T13:22:35;5.28;;;4.60;;
24381;SDS011;12502;50.678;7.172;2022-08-01T13:27:38;5.78;;;4.70;;
24381;SDS011;12502;50.678;7.172;2022-08-01T13:32:58;4.95;;;4.47;;
24381;SDS011;12502;50.678;7.172;2022-08-01T13:38:00;4.22;;;3.83;;
24381;SDS011;12502;50.678;7.172;2022-08-01T13:43:02;4.88;;;4.30;;
24381;SDS011;12502;50.678;7.172;2022-08-01T13:48:04;5.05;;;4.53;;
24381;SDS011;12502;50.678;7.172;2022-08-01T13:53:19;4.75;;;3.83;;
24381;SDS011;12502;50.678;7.172;2022-08-01T13:58:20;4.80;;;4.10;;
24381;SDS011;12502;50.678;7.172;2022-08-01T14:03:22;6.47;;;4.05;;
24381;SDS011;12502;50.678;7.172;2022-08-01T14:08:34;5.85;;;5.25;;
24381;SDS011;12502;50.678;7.172;2022-08-01T14:13:35;5.55;;;4.53;;
24381;SDS011;12502;50.678;7.172;2022-08-01T14:18:47;6.70;;;5.10;;
24381;SDS011;12502;50.678;7.172;2022-08-01T14:23:49;9.68;;;4.82;;
24381;SDS011;12502;50.678;7.172;2022-08-01T14:28:50;5.25;;;4.72;;
24381;SDS011;12502;50.678;7.172;2022-08-01T14:33:53;5.22;;;4.72;;
24381;SDS011;12502;50.678;7.172;2022-08-01T14:38:55;4.05;;;3.72;;
24381;SDS011;12502;50.678;7.172;2022-08-01T14:44:01;4.97;;;3.45;;
24381;SDS011;12502;50.678;7.172;2022-08-01T14:49:03;4.93;;;3.13;;
24381;SDS011;12502;50.678;7.172;2022-08-01T14:54:05;3.47;;;3.17;;
24381;SDS011;12502;50.678;7.172;2022-08-01T14:59:09;3.63;;;2.70;;
24381;SDS011;12502;50.678;7.172;2022-08-01T15:04:21;4.75;;;2.22;;
24381;SDS011;12502;50.678;7.172;2022-08-01T15:09:23;4.30;;;2.00;;
24381;SDS011;12502;50.678;7.172;2022-08-01T15:14:25;5.43;;;2.58;;
24381;SDS011;12502;50.678;7.172;2022-08-01T15:19:46;2.67;;;2.40;;
24381;SDS011;12502;50.678;7.172;2022-08-01T15:24:49;5.73;;;2.60;;
24381;SDS011;12502;50.678;7.172;2022-08-01T15:29:57;3.03;;;2.28;;
24381;SDS011;12502;50.678;7.172;2022-08-01T15:34:59;3.45;;;2.05;;
24381;SDS011;12502;50.678;7.172;2022-08-01T15:40:01;5.03;;;2.40;;
24381;SDS011;12502;50.678;7.172;2022-08-01T15:45:03;3.75;;;2.58;;
24381;SDS011;12502;50.678;7.172;2022-08-01T15:50:06;4.28;;;2.30;;
24381;SDS011;12502;50.678;7.172;2022-08-01T15:55:08;3.00;;;2.60;;
24381;SDS011;12502;50.678;7.172;2022-08-01T16:00:10;3.30;;;2.70;;
24381;SDS011;12502;50.678;7.172;2022-08-01T16:05:12;6.97;;;2.30;;
24381;SDS011;12502;50.678;7.172;2022-08-01T16:10:17;2.50;;;2.13;;
24381;SDS011;12502;50.678;7.172;2022-08-01T16:15:19;2.40;;;1.88;;
24381;SDS011;12502;50.678;7.172;2022-08-01T16:20:21;2.97;;;2.20;;
24381;SDS011;12502;50.678;7.172;2022-08-01T16:25:22;3.70;;;1.88;;
24381;SDS011;12502;50.678;7.172;2022-08-01T16:30:25;2.30;;;2.10;;
24381;SDS011;12502;50.678;7.172;2022-08-01T16:35:28;2.25;;;2.05;;
24381;SDS011;12502;50.678;7.172;2022-08-01T16:40:36;5.50;;;2.22;;
24381;SDS011;12502;50.678;7.172;2022-08-01T16:45:48;2.95;;;2.10;;
24381;SDS011;12502;50.678;7.172;2022-08-01T16:50:50;3.15;;;1.65;;
24381;SDS011;12502;50.678;7.172;2022-08-01T16:55:53;2.28;;;2.05;;
24381;SDS011;12502;50.678;7.172;2022-08-01T17:00:55;2.35;;;1.80;;
24381;SDS011;12502;50.678;7.172;2022-08-01T17:06:17;5.93;;;2.10;;
24381;SDS011;12502;50.678;7.172;2022-08-01T17:11:18;3.22;;;2.00;;
24381;SDS011;12502;50.678;7.172;2022-08-01T17:16:20;2.13;;;1.92;;
24381;SDS011;12502;50.678;7.172;2022-08-01T17:21:22;3.40;;;1.70;;
24381;SDS011;12502;50.678;7.172;2022-08-01T17:26:24;3.42;;;2.08;;
24381;SDS011;12502;50.678;7.172;2022-08-01T17:31:26;14.23;;;2.40;;
24381;SDS011;12502;50.678;7.172;2022-08-01T17:36:28;6.20;;;2.20;;
24381;SDS011;12502;50.678;7.172;2022-08-01T17:41:30;3.92;;;2.10;;
24381;SDS011;12502;50.678;7.172;2022-08-01T17:46:32;4.72;;;1.95;;
24381;SDS011;12502;50.678;7.172;2022-08-01T17:51:34;2.10;;;1.80;;
24381;SDS011;12502;50.678;7.172;2022-08-01T17:56:36;1.73;;;1.63;;
24381;SDS011;12502;50.678;7.172;2022-08-01T18:01:43;3.80;;;2.20;;
24381;SDS011;12502;50.678;7.172;2022-08-01T18:06:45;2.08;;;1.83;;
24381;SDS011;12502;50.678;7.172;2022-08-01T18:12:07;2.55;;;1.98;;
24381;SDS011;12502;50.678;7.172;2022-08-01T18:17:09;7.72;;;2.33;;
24381;SDS011;12502;50.678;7.172;2022-08-01T18:22:11;3.42;;;2.25;;
24381;SDS011;12502;50.678;7.172;2022-08-01T18:27:33;2.38;;;1.98;;
24381;SDS011;12502;50.678;7.172;2022-08-01T18:32:55;4.18;;;2.67;;
24381;SDS011;12502;50.678;7.172;2022-08-01T18:37:57;4.28;;;2.35;;
24381;SDS011;12502;50.678;7.172;2022-08-01T18:43:02;3.53;;;2.28;;
24381;SDS011;12502;50.678;7.172;2022-08-01T18:48:04;4.80;;;2.65;;
24381;SDS011;12502;50.678;7.172;2022-08-01T18:53:06;3.30;;;3.00;;
24381;SDS011;12502;50.678;7.172;2022-08-01T18:58:07;4.00;;;3.20;;
24381;SDS011;12502;50.678;7.172;2022-08-01T19:03:09;3.83;;;2.85;;
24381;SDS011;12502;50.678;7.172;2022-08-01T19:08:11;4.40;;;3.08;;
24381;SDS011;12502;50.678;7.172;2022-08-01T19:13:13;4.03;;;2.88;;
24381;SDS011;12502;50.678;7.172;2022-08-01T19:18:16;3.50;;;3.20;;
24381;SDS011;12502;50.678;7.172;2022-08-01T19:23:18;3.35;;;3.05;;
24381;SDS011;12502;50.678;7.172;2022-08-01T19:28:42;3.80;;;3.28;;
24381;SDS011;12502;50.678;7.172;2022-08-01T19:33:49;3.45;;;3.10;;
24381;SDS011;12502;50.678;7.172;2022-08-01T19:38:52;4.57;;;3.40;;
24381;SDS011;12502;50.678;7.172;2022-08-01T19:43:55;3.47;;;3.28;;
24381;SDS011;12502;50.678;7.172;2022-08-01T19:48:59;3.70;;;3.40;;
24381;SDS011;12502;50.678;7.172;2022-08-01T19:54:03;5.15;;;3.10;;
24381;SDS011;12502;50.678;7.172;2022-08-01T19:59:06;3.70;;;3.40;;
24381;SDS011;12502;50.678;7.172;2022-08-01T20:04:08;4.03;;;3.42;;
24381;SDS011;12502;50.678;7.172;2022-08-01T20:09:10;3.85;;;3.58;;
24381;SDS011;12502;50.678;7.172;2022-08-01T20:14:17;3.80;;;3.40;;
24381;SDS011;12502;50.678;7.172;2022-08-01T20:19:23;3.78;;;3.13;;
24381;SDS011;12502;50.678;7.172;2022-08-01T20:24:26;4.85;;;3.13;;
24381;SDS011;12502;50.678;7.172;2022-08-01T20:29:30;6.47;;;3.28;;
24381;SDS011;12502;50.678;7.172;2022-08-01T20:34:34;3.25;;;2.78;;
24381;SDS011;12502;50.678;7.172;2022-08-01T20:39:37;4.10;;;3.05;;
24381;SDS011;12502;50.678;7.172;2022-08-01T20:44:44;3.65;;;2.67;;
24381;SDS011;12502;50.678;7.172;2022-08-01T20:49:50;2.75;;;2.42;;
24381;SDS011;12502;50.678;7.172;2022-08-01T20:54:52;2.80;;;2.47;;
24381;SDS011;12502;50.678;7.172;2022-08-01T20:59:57;3.03;;;2.78;;
24381;SDS011;12502;50.678;7.172;2022-08-01T21:05:05;3.47;;;2.90;;
24381;SDS011;12502;50.678;7.172;2022-08-01T21:10:12;4.07;;;3.13;;
24381;SDS011;12502;50.678;7.172;2022-08-01T21:20:33;3.50;;;3.20;;
24381;SDS011;12502;50.678;7.172;2022-08-01T21:25:37;4.88;;;3.67;;
24381;SDS011;12502;50.678;7.172;2022-08-01T21:30:42;4.15;;;3.75;;
24381;SDS011;12502;50.678;7.172;2022-08-01T21:35:57;4.55;;;4.00;;
24381;SDS011;12502;50.678;7.172;2022-08-01T21:41:06;7.35;;;4.30;;
24381;SDS011;12502;50.678;7.172;2022-08-01T21:46:09;6.03;;;4.15;;
24381;SDS011;12502;50.678;7.172;2022-08-01T22:02:08;5.63;;;4.38;;
24381;SDS011;12502;50.678;7.172;2022-08-01T22:07:17;7.78;;;3.80;;
24381;SDS011;12502;50.678;7.172;2022-08-01T22:12:18;4.93;;;4.03;;
24381;SDS011;12502;50.678;7.172;2022-08-01T22:17:22;6.88;;;4.30;;
24381;SDS011;12502;50.678;7.172;2022-08-01T22:22:24;5.28;;;3.88;;
24381;SDS011;12502;50.678;7.172;2022-08-01T22:27:47;5.20;;;3.63;;
24381;SDS011;12502;50.678;7.172;2022-08-01T22:33:10;4.93;;;3.97;;
24381;SDS011;12502;50.678;7.172;2022-08-01T22:38:18;4.95;;;4.05;;
24381;SDS011;12502;50.678;7.172;2022-08-01T22:43:24;6.07;;;4.70;;
24381;SDS011;12502;50.678;7.172;2022-08-01T22:48:38;4.15;;;3.70;;
24381;SDS011;12502;50.678;7.172;2022-08-01T22:59:10;5.32;;;4.03;;
24381;SDS011;12502;50.678;7.172;2022-08-01T23:04:19;5.53;;;4.22;;
24381;SDS011;12502;50.678;7.172;2022-08-01T23:09:34;5.65;;;5.00;;
24381;SDS011;12502;50.678;7.172;2022-08-01T23:14:55;7.25;;;4.75;;
24381;SDS011;12502;50.678;7.172;2022-08-01T23:19:59;8.35;;;5.30;;
24381;SDS011;12502;50.678;7.172;2022-08-01T23:30:07;5.30;;;3.80;;
24381;SDS011;12502;50.678;7.172;2022-08-01T23:35:09;5.68;;;4.18;;
24381;SDS011;12502;50.678;7.172;2022-08-01T23:40:11;5.88;;;3.90;;
24381;SDS011;12502;50.678;7.172;2022-08-01T23:45:13;4.05;;;3.58;;
24381;SDS011;12502;50.678;7.172;2022-08-01T23:50:15;5.32;;;3.28;;
24381;SDS011;12502;50.678;7.172;2022-08-01T23:55:17;4.85;;;3.20;;
